Terminal Aerodrome Forecast
Issued by NWS

Home | Current Version | Previous Version | Text Only | Print | Product List | Glossary On
Versions: 1 2 3 4 5 6 7 8 9 10 11 12 13 14 15 16
388
FTUS42 KTBW 251730
TAFPGD
TAF
KPGD 251730Z 2518/2618 29014KT P6SM BKN035 BKN250
     FM252100 29011KT P6SM SCT035 BKN250
     FM260000 29006KT P6SM FEW035 SCT250
     FM260300 33004KT P6SM FEW250
     FM260900 07004KT P6SM FEW025 FEW250
     FM261600 31004KT P6SM FEW025 FEW250=

USA.gov is the U.S. government's official web portal to all federal, state and local government web resources and services.